createdAt,value
2023-03-06T00:00:57.864Z,49.84
2023-03-06T00:06:00.369Z,46.95
2023-03-06T00:11:02.159Z,50.10
2023-03-06T00:16:05.013Z,49.85
2023-03-06T00:21:08.559Z,52.32
2023-03-06T00:26:10.638Z,53.92
2023-03-06T00:31:12.305Z,49.96
2023-03-06T00:36:14.096Z,50.93
2023-03-06T00:41:15.756Z,52.43
2023-03-06T00:46:17.567Z,53.60
2023-03-06T00:51:19.816Z,50.74
2023-03-06T00:56:22.512Z,49.84
2023-03-06T01:01:24.208Z,48.56
2023-03-06T01:06:25.874Z,50.49
2023-03-06T01:11:27.680Z,48.55
2023-03-06T01:16:29.330Z,48.75
2023-03-06T01:21:31.097Z,48.45
2023-03-06T01:26:33.614Z,48.69
2023-03-06T01:31:35.370Z,49.21
2023-03-06T01:36:37.077Z,48.35
2023-03-06T01:41:38.779Z,50.68
2023-03-06T01:46:44.147Z,52.34
2023-03-06T01:51:48.949Z,53.32
2023-03-06T01:56:54.899Z,51.26
2023-03-06T02:01:58.612Z,50.25
2023-03-06T02:07:04.920Z,50.60
2023-03-06T02:12:10.976Z,49.08
2023-03-06T02:17:15.295Z,51.50
2023-03-06T02:22:16.985Z,50.43
2023-03-06T02:27:19.552Z,50.71
2023-03-06T02:32:21.300Z,49.78
2023-03-06T02:37:24.747Z,52.38
2023-03-06T02:42:28.917Z,50.48
2023-03-06T02:47:30.817Z,51.13
2023-03-06T02:52:32.508Z,51.06
2023-03-06T02:57:34.184Z,49.86
2023-03-06T03:02:36.072Z,50.19
2023-03-06T03:07:37.646Z,49.78
2023-03-06T03:12:39.571Z,49.75
2023-03-06T03:17:42.301Z,47.91
2023-03-06T03:22:48.349Z,48.62
2023-03-06T03:27:50.084Z,48.37
2023-03-06T03:32:51.794Z,47.86
2023-03-06T03:37:54.782Z,49.98
2023-03-06T03:42:56.418Z,47.99
2023-03-06T03:47:58.063Z,48.22
2023-03-06T03:52:59.905Z,47.99
2023-03-06T03:58:01.585Z,49.68
2023-03-06T04:03:03.308Z,49.14
2023-03-06T04:08:05.637Z,48.97
2023-03-06T04:13:09.919Z,49.01
2023-03-06T04:18:11.844Z,48.55
2023-03-06T04:23:14.263Z,48.09
2023-03-06T04:28:15.993Z,47.33
2023-03-06T04:33:17.823Z,48.06
2023-03-06T04:38:19.493Z,46.67
2023-03-06T04:43:21.280Z,48.90
2023-03-06T04:48:23.012Z,48.57
2023-03-06T04:53:24.701Z,48.18
2023-03-06T04:58:26.548Z,48.09
2023-03-06T05:03:28.167Z,48.45
2023-03-06T05:08:30.234Z,48.64
2023-03-06T05:13:31.865Z,48.90
2023-03-06T05:18:36.034Z,48.73
2023-03-06T05:23:38.679Z,47.77
2023-03-06T05:28:40.721Z,48.50
2023-03-06T05:33:42.388Z,47.50
2023-03-06T05:38:44.040Z,48.72
2023-03-06T05:43:45.803Z,47.57
2023-03-06T05:48:47.802Z,48.68
2023-03-06T05:53:49.590Z,48.48
2023-03-06T05:58:51.683Z,50.10
2023-03-06T06:03:53.419Z,49.61
2023-03-06T06:08:55.150Z,48.07
2023-03-06T06:13:56.865Z,49.55
2023-03-06T06:18:59.077Z,49.04
2023-03-06T06:24:00.727Z,47.50
2023-03-06T06:29:04.395Z,48.00
2023-03-06T06:34:07.291Z,50.17
2023-03-06T06:39:10.869Z,49.48
2023-03-06T06:44:14.612Z,48.72
2023-03-06T06:49:16.869Z,49.83
2023-03-06T06:54:19.982Z,49.86
2023-03-06T06:59:23.811Z,49.94
2023-03-06T07:04:25.620Z,48.89
2023-03-06T07:09:27.386Z,49.11
2023-03-06T07:14:29.008Z,49.83
2023-03-06T07:19:30.711Z,49.25
2023-03-06T07:24:32.453Z,50.95
2023-03-06T07:29:34.712Z,48.77
2023-03-06T07:34:36.385Z,50.77
2023-03-06T07:39:38.074Z,50.88
2023-03-06T07:44:40.273Z,50.36
2023-03-06T07:49:41.970Z,53.01
2023-03-06T07:54:43.693Z,52.15
2023-03-06T07:59:45.299Z,54.88
2023-03-06T08:04:53.026Z,51.34
2023-03-06T08:09:54.732Z,52.22
2023-03-06T08:14:56.361Z,50.44
2023-03-06T08:19:58.133Z,52.11
2023-03-06T08:24:59.817Z,51.66
2023-03-06T08:30:01.591Z,53.51
2023-03-06T08:35:05.050Z,51.94
2023-03-06T08:40:07.425Z,51.87
2023-03-06T08:45:09.726Z,50.58
2023-03-06T08:50:11.974Z,50.79
2023-03-06T08:55:15.125Z,50.71
2023-03-06T09:00:17.620Z,51.88
2023-03-06T09:05:19.398Z,51.57
2023-03-06T09:10:24.531Z,49.81
2023-03-06T09:15:26.500Z,50.40
2023-03-06T09:20:28.171Z,50.60
2023-03-06T09:25:29.823Z,49.58
2023-03-06T09:30:31.576Z,51.13
2023-03-06T09:35:33.320Z,49.71
2023-03-06T09:40:57.813Z,50.68
2023-03-06T09:45:59.684Z,49.70
2023-03-06T09:51:12.591Z,50.36
2023-03-06T09:56:20.959Z,49.16
2023-03-06T10:01:30.322Z,49.78
2023-03-06T10:06:48.589Z,51.04
2023-03-06T10:11:58.847Z,50.05
2023-03-06T10:17:01.898Z,49.67
2023-03-06T10:22:24.467Z,50.43
2023-03-06T10:27:43.088Z,50.76
2023-03-06T10:32:51.380Z,49.93
2023-03-06T10:38:01.012Z,50.40
2023-03-06T10:43:11.339Z,50.43
2023-03-06T10:48:19.783Z,49.83
2023-03-06T10:53:31.358Z,47.86
2023-03-06T10:58:33.156Z,48.82
2023-03-06T11:06:35.183Z,52.36
2023-03-06T11:11:38.143Z,51.86
2023-03-06T11:16:39.822Z,50.87
2023-03-06T11:21:41.416Z,50.33
2023-03-06T11:26:51.668Z,51.07
2023-03-06T11:32:12.093Z,50.33
2023-03-06T11:37:44.351Z,49.20
2023-03-06T11:42:54.027Z,49.55
2023-03-06T11:48:16.610Z,48.17
2023-03-06T11:53:37.798Z,48.42
2023-03-06T11:58:56.277Z,48.11
2023-03-06T12:04:22.617Z,47.47
2023-03-06T12:09:32.516Z,47.87
2023-03-06T12:14:34.025Z,48.63
2023-03-06T12:20:07.321Z,48.06
2023-03-06T12:25:42.519Z,48.56
2023-03-06T12:31:09.208Z,47.79
2023-03-06T12:36:24.283Z,48.07
2023-03-06T12:41:38.002Z,48.00
2023-03-06T12:46:56.433Z,48.73
2023-03-06T12:51:59.882Z,48.07
2023-03-06T12:57:01.777Z,47.81
2023-03-06T13:02:37.247Z,48.23
2023-03-06T13:08:12.970Z,49.15
2023-03-06T13:13:32.498Z,49.36
2023-03-06T13:18:33.999Z,49.03
2023-03-06T13:23:35.754Z,49.59
2023-03-06T13:28:40.575Z,51.06
2023-03-06T13:33:45.197Z,50.31
2023-03-06T13:38:49.697Z,49.69
2023-03-06T13:43:56.750Z,50.98
2023-03-06T13:49:13.181Z,50.24
2023-03-06T13:54:45.976Z,50.85
2023-03-06T14:00:03.057Z,51.31
2023-03-06T14:05:15.745Z,52.25
2023-03-06T14:10:24.652Z,51.51
2023-03-06T14:15:54.511Z,51.40
2023-03-06T14:20:56.398Z,51.64
2023-03-06T14:26:23.440Z,51.58
2023-03-06T14:31:27.290Z,50.52
2023-03-06T14:36:51.025Z,49.35
2023-03-06T14:42:04.356Z,50.54
2023-03-06T14:47:28.902Z,50.21
2023-03-06T14:52:30.705Z,49.29
2023-03-06T14:57:32.370Z,49.52
2023-03-06T15:05:33.476Z,52.57
2023-03-06T15:10:38.773Z,52.16
2023-03-06T15:15:40.315Z,50.95
2023-03-06T15:20:44.768Z,51.79
2023-03-06T15:25:57.720Z,50.30
2023-03-06T15:31:16.329Z,49.62
2023-03-06T15:36:29.560Z,49.41
2023-03-06T15:41:38.533Z,50.36
2023-03-06T15:46:40.561Z,49.08
2023-03-06T15:51:42.257Z,50.42
2023-03-06T15:56:46.199Z,49.51
2023-03-06T16:01:48.435Z,48.52
2023-03-06T16:07:04.906Z,48.28
2023-03-06T18:08:56.263Z,48.58
2023-03-06T18:13:58.122Z,48.84
2023-03-06T18:18:59.765Z,47.98
2023-03-06T18:24:01.499Z,50.66
2023-03-06T18:29:04.965Z,48.37
2023-03-06T18:34:14.593Z,47.84
2023-03-06T18:39:16.555Z,48.01
2023-03-06T18:44:19.044Z,48.01
2023-03-06T18:49:21.146Z,48.19
2023-03-06T18:54:24.466Z,48.85
2023-03-06T18:59:26.450Z,48.96
2023-03-06T19:04:28.293Z,48.52
2023-03-06T19:09:30.042Z,47.99
2023-03-06T19:14:31.924Z,48.44
2023-03-06T19:19:33.579Z,48.60
2023-03-06T19:24:35.250Z,48.16
2023-03-06T19:29:38.613Z,47.79
2023-03-06T19:34:40.321Z,48.23
2023-03-06T19:39:43.182Z,48.50
2023-03-06T19:44:45.200Z,48.85
2023-03-06T19:49:46.991Z,48.44
2023-03-06T19:54:48.825Z,48.53
2023-03-06T19:59:53.991Z,47.95
2023-03-06T20:04:55.777Z,47.65
2023-03-06T20:10:00.734Z,48.26
2023-03-06T20:15:02.751Z,48.78
2023-03-06T20:20:04.649Z,48.35
2023-03-06T20:25:06.573Z,48.89
2023-03-06T20:30:09.097Z,49.87
2023-03-06T20:35:10.839Z,48.58
2023-03-06T20:40:12.972Z,48.69
2023-03-06T20:45:15.620Z,47.93
2023-03-06T20:50:17.421Z,48.61
2023-03-06T20:55:19.121Z,49.29
2023-03-06T21:00:21.347Z,48.76
2023-03-06T21:05:22.972Z,48.85
2023-03-06T21:10:24.605Z,49.15
2023-03-06T21:15:29.984Z,48.91
2023-03-06T21:20:31.778Z,48.39
2023-03-06T21:25:34.081Z,47.94
2023-03-06T21:30:36.056Z,48.86
2023-03-06T21:35:41.681Z,48.72
2023-03-06T21:40:45.531Z,49.53
2023-03-06T21:45:48.587Z,49.11
2023-03-06T21:50:50.280Z,48.75
2023-03-06T21:55:51.901Z,47.98
2023-03-06T22:00:53.662Z,48.50
2023-03-06T22:05:56.605Z,49.69
2023-03-06T22:10:58.273Z,49.63
2023-03-06T22:15:59.983Z,48.27
2023-03-06T22:21:07.150Z,50.16
2023-03-06T22:26:12.719Z,48.50
2023-03-06T22:31:17.250Z,48.60
2023-03-06T22:36:21.007Z,48.73
2023-03-06T22:41:23.469Z,49.67
2023-03-06T22:46:26.201Z,49.96
2023-03-06T22:51:28.889Z,49.83
2023-03-06T22:56:31.319Z,48.33
2023-03-06T23:01:34.682Z,49.03
2023-03-06T23:06:39.641Z,49.92
2023-03-06T23:11:41.934Z,51.34
2023-03-06T23:16:44.787Z,49.58
2023-03-06T23:21:46.388Z,50.38
2023-03-06T23:26:47.987Z,50.60
2023-03-06T23:31:49.652Z,50.09
2023-03-06T23:36:51.274Z,49.17
2023-03-06T23:41:52.926Z,49.42
2023-03-06T23:46:54.761Z,48.20
2023-03-06T23:51:56.390Z,48.99
2023-03-06T23:56:58.146Z,49.49
